首页
METAR-TAF:

METAR-TAF

机场 :

Georgetown Municipal Airport

乔治城, 得克萨斯州, 美国

纬度: 30-41N, 经度: 097-41W, 海拔: 240米

当前天气观测

该预报发布于30分钟前的01:22 UTC
风速4节,风向
温度 12°C
湿度 100%
气压 1014 hPa
能見度: 2.8公里
阴天层高于300英尺
小雨, 轻雾

METAR: KGTU 230122Z 10004KT 1 3/4SM -RA BR OVC003 12/12 A2993 RMK AO2 RAB03 P0000

时间: 19:52 (01:52 UTC)


TAF: 丢失

超过4000个机场的气象观测和天气预报(METAR&TAF报告)。

可查询的气象台以黄色和红色小点在地图上表示。

将鼠标移到小点上方,可查看气象台名称。

然后点击查看天气观测和预报。

如需切换地图:点击带黑十字的绿色按钮放大地图;点击带横线的绿色按钮缩小地图;或者点击绿色箭头查看邻近地区的地图。


METAR-TAF: